North Tonawanda, NY (14120)

5:35 PM EDT on October 14, 2019 (GMT -0400)
Deldas park - 664 Payne Ave | | Change Station

Elev 571 ft 43.04 °N, 78.87 °W | Updated 18 seconds ago

Mostly Cloudy
Mostly Cloudy
51.3 °F
Feels Like 51.3 °F
N
2.2
Wind Variable Wind from West
Gusts 3.4 mph

Today
High -- | Low -- °F
--% Chance of Precip.
Yesterday
High -- | Low -- °F
Precip. -- in
Pressure 30.03 in
Visibility 10.0 miles
Clouds Overcast 6000 ft
Dew Point 35 °F
Humidity 54%
Rainfall 0.00 in
Snow Depth Not available.
7:27 AM 6:34 PM
Full, 99% visible
METAR KIAG 142053Z 29010KT 10SM OVC060 11/M01 A3001 RMK AO2 SLP167 T01061006 53008
Pressure 30.03 in
Visibility 10.0 miles
Clouds Overcast 6000 ft
Dew Point 35 °F
Humidity 54%
Rainfall 0.00 in
Snow Depth Not available.
7:27 AM 6:34 PM
Full, 99% visible
METAR KIAG 142053Z 29010KT 10SM OVC060 11/M01 A3001 RMK AO2 SLP167 T01061006 53008

Get Severe Weather Alerts

Thanks for signing up!

Be on the lookout for a verification email in your inbox.

You'll start receiving the daily forecast at 6 AM.

×

10-Day Weather Forecast

Almanac

Astronomy

Oct. 14, 2019 Rise Set
Actual Time
Civil Twilight
Nautical Twilight
Astronomical Twilight
Moon
Length of Visible Light
Length of Day
Tomorrow will be .
, % of the Moon is Illuminated

Today's Extremes

State Highs State Lows

Community

WunderPhotos

Category 6

Welcome to Category 6. This is the collective home for Weather Underground's featured writeups by Dr. Jeff Masters (right), Bob Henson (left), Chris Burt, and other regular contributors.

Nearby

Air Quality

  Air Quality AQ Index Pollutant
Not available.

Snow Depth

Station Depth Elevation

Earthquake Activity

City Distance Mag. Time & Date
Minimum magnitude displayed is 2.5.

Coastal Water Temperatures

Place Temperature

Stations

Nearby Weather Stations

Station Location Temp. Windchill Dew Point Humidity Wind Precip. Elev Updated Type
                   

Watches & Warnings

There are currently no watches in effect.